sensor_id;sensor_type;location;lat;lon;timestamp;temperature;humidity
46490;DHT22;32204;49.160;8.580;2024-01-15T00:02:17;-0.60;99.90
46490;DHT22;32204;49.160;8.580;2024-01-15T00:04:42;-0.60;47.30
46490;DHT22;32204;49.160;8.580;2024-01-15T00:07:08;-0.50;4.70
46490;DHT22;32204;49.160;8.580;2024-01-15T00:09:34;-0.40;1.00
46490;DHT22;32204;49.160;8.580;2024-01-15T00:12:01;-0.40;1.00
46490;DHT22;32204;49.160;8.580;2024-01-15T00:14:27;-0.40;1.00
46490;DHT22;32204;49.160;8.580;2024-01-15T00:16:53;-0.40;8.50
46490;DHT22;32204;49.160;8.580;2024-01-15T00:19:21;-0.50;1.00
46490;DHT22;32204;49.160;8.580;2024-01-15T00:21:47;-0.50;99.90
46490;DHT22;32204;49.160;8.580;2024-01-15T00:24:13;-0.50;11.70
46490;DHT22;32204;49.160;8.580;2024-01-15T00:26:39;-0.50;99.90
46490;DHT22;32204;49.160;8.580;2024-01-15T00:29:07;-0.60;99.90
46490;DHT22;32204;49.160;8.580;2024-01-15T00:31:33;-0.60;99.90
46490;DHT22;32204;49.160;8.580;2024-01-15T00:33:58;-0.50;99.90
46490;DHT22;32204;49.160;8.580;2024-01-15T00:36:24;-0.60;1.00
46490;DHT22;32204;49.160;8.580;2024-01-15T00:38:50;-0.60;99.90
46490;DHT22;32204;49.160;8.580;2024-01-15T00:41:16;-0.60;99.90
46490;DHT22;32204;49.160;8.580;2024-01-15T00:43:44;-0.50;99.90
46490;DHT22;32204;49.160;8.580;2024-01-15T00:46:10;-0.50;99.90
46490;DHT22;32204;49.160;8.580;2024-01-15T00:48:36;-0.50;99.90
46490;DHT22;32204;49.160;8.580;2024-01-15T00:51:01;-0.50;99.90
46490;DHT22;32204;49.160;8.580;2024-01-15T00:53:27;-0.50;99.90
46490;DHT22;32204;49.160;8.580;2024-01-15T00:55:53;-0.40;99.90
46490;DHT22;32204;49.160;8.580;2024-01-15T00:58:19;-0.40;99.90
46490;DHT22;32204;49.160;8.580;2024-01-15T01:00:44;-0.40;99.90
46490;DHT22;32204;49.160;8.580;2024-01-15T01:03:10;-0.40;99.90
46490;DHT22;32204;49.160;8.580;2024-01-15T01:05:35;-0.50;99.90
46490;DHT22;32204;49.160;8.580;2024-01-15T01:08:01;-0.60;99.90
46490;DHT22;32204;49.160;8.580;2024-01-15T01:10:27;-0.50;99.90
46490;DHT22;32204;49.160;8.580;2024-01-15T01:12:53;-0.50;1.00
46490;DHT22;32204;49.160;8.580;2024-01-15T01:15:18;-0.50;99.90
46490;DHT22;32204;49.160;8.580;2024-01-15T01:17:44;-0.50;76.90
46490;DHT22;32204;49.160;8.580;2024-01-15T01:20:10;-0.40;1.00
46490;DHT22;32204;49.160;8.580;2024-01-15T01:22:36;-0.40;99.90
46490;DHT22;32204;49.160;8.580;2024-01-15T01:25:02;-0.40;99.90
46490;DHT22;32204;49.160;8.580;2024-01-15T01:27:28;-0.40;1.00
46490;DHT22;32204;49.160;8.580;2024-01-15T01:29:53;-0.40;99.90
46490;DHT22;32204;49.160;8.580;2024-01-15T01:32:19;-0.40;99.90
46490;DHT22;32204;49.160;8.580;2024-01-15T01:34:45;-0.40;99.90
46490;DHT22;32204;49.160;8.580;2024-01-15T01:37:11;-0.50;99.90
46490;DHT22;32204;49.160;8.580;2024-01-15T01:39:41;-0.50;1.00
46490;DHT22;32204;49.160;8.580;2024-01-15T01:42:07;-0.50;1.00
46490;DHT22;32204;49.160;8.580;2024-01-15T01:44:33;-0.50;1.00
46490;DHT22;32204;49.160;8.580;2024-01-15T01:46:59;-0.50;1.00
46490;DHT22;32204;49.160;8.580;2024-01-15T01:49:27;-0.50;1.00
46490;DHT22;32204;49.160;8.580;2024-01-15T01:51:53;-0.50;1.00
46490;DHT22;32204;49.160;8.580;2024-01-15T01:54:21;-0.50;32.50
46490;DHT22;32204;49.160;8.580;2024-01-15T01:56:47;-0.50;1.00
46490;DHT22;32204;49.160;8.580;2024-01-15T01:59:13;-0.50;1.00
46490;DHT22;32204;49.160;8.580;2024-01-15T02:01:40;-0.50;1.00
46490;DHT22;32204;49.160;8.580;2024-01-15T02:04:06;-0.50;1.00
46490;DHT22;32204;49.160;8.580;2024-01-15T02:06:32;-0.40;1.00
46490;DHT22;32204;49.160;8.580;2024-01-15T02:08:57;-0.30;1.00
46490;DHT22;32204;49.160;8.580;2024-01-15T02:11:23;-0.40;99.90
46490;DHT22;32204;49.160;8.580;2024-01-15T02:13:49;-0.30;99.90
46490;DHT22;32204;49.160;8.580;2024-01-15T02:16:15;-0.40;99.90
46490;DHT22;32204;49.160;8.580;2024-01-15T02:18:42;-0.40;1.00
46490;DHT22;32204;49.160;8.580;2024-01-15T02:21:08;-0.40;1.00
46490;DHT22;32204;49.160;8.580;2024-01-15T02:23:34;-0.40;1.00
46490;DHT22;32204;49.160;8.580;2024-01-15T02:25:59;-0.50;1.00
46490;DHT22;32204;49.160;8.580;2024-01-15T02:28:25;-0.40;1.00
46490;DHT22;32204;49.160;8.580;2024-01-15T02:30:50;-0.40;1.00
46490;DHT22;32204;49.160;8.580;2024-01-15T02:33:16;-0.30;99.90
46490;DHT22;32204;49.160;8.580;2024-01-15T02:35:42;-0.20;99.90
46490;DHT22;32204;49.160;8.580;2024-01-15T02:38:08;-0.30;99.90
46490;DHT22;32204;49.160;8.580;2024-01-15T02:40:35;-0.30;99.90
46490;DHT22;32204;49.160;8.580;2024-01-15T02:43:01;-0.20;99.90
46490;DHT22;32204;49.160;8.580;2024-01-15T02:45:27;-0.20;1.00
46490;DHT22;32204;49.160;8.580;2024-01-15T02:47:52;-0.20;2.90
46490;DHT22;32204;49.160;8.580;2024-01-15T02:50:18;-0.30;99.90
46490;DHT22;32204;49.160;8.580;2024-01-15T02:52:44;-0.30;99.90
46490;DHT22;32204;49.160;8.580;2024-01-15T02:55:10;-0.40;99.90
46490;DHT22;32204;49.160;8.580;2024-01-15T02:57:35;-0.40;1.00
46490;DHT22;32204;49.160;8.580;2024-01-15T03:00:01;-0.50;1.00
46490;DHT22;32204;49.160;8.580;2024-01-15T03:02:27;-0.50;99.90
46490;DHT22;32204;49.160;8.580;2024-01-15T03:04:52;-0.60;99.90
46490;DHT22;32204;49.160;8.580;2024-01-15T03:07:18;-0.60;99.90
46490;DHT22;32204;49.160;8.580;2024-01-15T03:09:44;-0.50;99.90
46490;DHT22;32204;49.160;8.580;2024-01-15T03:12:09;-0.60;99.90
46490;DHT22;32204;49.160;8.580;2024-01-15T03:14:36;-0.60;1.00
46490;DHT22;32204;49.160;8.580;2024-01-15T03:17:02;-0.60;99.90
46490;DHT22;32204;49.160;8.580;2024-01-15T03:19:27;-0.60;99.90
46490;DHT22;32204;49.160;8.580;2024-01-15T03:21:53;-0.50;99.90
46490;DHT22;32204;49.160;8.580;2024-01-15T03:24:19;-0.50;99.90
46490;DHT22;32204;49.160;8.580;2024-01-15T03:26:45;-0.50;99.90
46490;DHT22;32204;49.160;8.580;2024-01-15T03:29:11;-0.50;99.90
46490;DHT22;32204;49.160;8.580;2024-01-15T03:31:36;-0.40;99.90
46490;DHT22;32204;49.160;8.580;2024-01-15T03:34:02;-0.40;99.90
46490;DHT22;32204;49.160;8.580;2024-01-15T03:36:28;-0.40;99.90
46490;DHT22;32204;49.160;8.580;2024-01-15T03:38:54;-0.40;99.90
46490;DHT22;32204;49.160;8.580;2024-01-15T03:41:20;-0.30;99.90
46490;DHT22;32204;49.160;8.580;2024-01-15T03:43:45;-0.40;99.90
46490;DHT22;32204;49.160;8.580;2024-01-15T03:46:11;-0.40;99.90
46490;DHT22;32204;49.160;8.580;2024-01-15T03:48:36;-0.40;99.90
46490;DHT22;32204;49.160;8.580;2024-01-15T03:51:02;-0.30;99.90
46490;DHT22;32204;49.160;8.580;2024-01-15T03:53:28;-0.40;99.90
46490;DHT22;32204;49.160;8.580;2024-01-15T03:55:53;-0.40;99.90
46490;DHT22;32204;49.160;8.580;2024-01-15T03:58:19;-0.40;99.90
46490;DHT22;32204;49.160;8.580;2024-01-15T04:00:44;-0.40;99.90
46490;DHT22;32204;49.160;8.580;2024-01-15T04:03:10;-0.40;1.00
46490;DHT22;32204;49.160;8.580;2024-01-15T04:05:35;-0.50;1.00
46490;DHT22;32204;49.160;8.580;2024-01-15T04:08:01;-0.50;99.90
46490;DHT22;32204;49.160;8.580;2024-01-15T04:10:27;-0.50;99.90
46490;DHT22;32204;49.160;8.580;2024-01-15T04:12:52;-0.50;99.90
46490;DHT22;32204;49.160;8.580;2024-01-15T04:15:18;-0.40;99.90
46490;DHT22;32204;49.160;8.580;2024-01-15T04:17:44;-0.30;1.00
46490;DHT22;32204;49.160;8.580;2024-01-15T04:20:10;-0.40;93.90
46490;DHT22;32204;49.160;8.580;2024-01-15T04:22:36;-0.30;93.00
46490;DHT22;32204;49.160;8.580;2024-01-15T04:25:02;-0.40;99.90
46490;DHT22;32204;49.160;8.580;2024-01-15T04:27:28;-0.30;99.90
46490;DHT22;32204;49.160;8.580;2024-01-15T04:29:53;-0.30;99.90
46490;DHT22;32204;49.160;8.580;2024-01-15T04:32:19;-0.40;99.90
46490;DHT22;32204;49.160;8.580;2024-01-15T04:34:45;-0.30;99.90
46490;DHT22;32204;49.160;8.580;2024-01-15T04:37:10;-0.40;99.90
46490;DHT22;32204;49.160;8.580;2024-01-15T04:39:36;-0.50;1.00
46490;DHT22;32204;49.160;8.580;2024-01-15T04:42:02;-0.50;1.00
46490;DHT22;32204;49.160;8.580;2024-01-15T04:44:28;-0.40;1.00
46490;DHT22;32204;49.160;8.580;2024-01-15T04:46:54;-0.40;22.20
46490;DHT22;32204;49.160;8.580;2024-01-15T04:49:19;-0.40;22.20
46490;DHT22;32204;49.160;8.580;2024-01-15T04:51:45;-0.30;74.70
46490;DHT22;32204;49.160;8.580;2024-01-15T04:54:10;-0.30;1.00
46490;DHT22;32204;49.160;8.580;2024-01-15T04:56:36;-0.40;97.50
46490;DHT22;32204;49.160;8.580;2024-01-15T04:59:02;-0.30;99.90
46490;DHT22;32204;49.160;8.580;2024-01-15T05:01:34;-0.30;99.90
46490;DHT22;32204;49.160;8.580;2024-01-15T05:04:00;-0.20;68.60
46490;DHT22;32204;49.160;8.580;2024-01-15T05:06:25;-0.20;1.00
46490;DHT22;32204;49.160;8.580;2024-01-15T05:08:51;-0.30;1.00
46490;DHT22;32204;49.160;8.580;2024-01-15T05:11:16;-0.20;10.50
46490;DHT22;32204;49.160;8.580;2024-01-15T05:13:42;-0.20;1.00
46490;DHT22;32204;49.160;8.580;2024-01-15T05:16:08;-0.20;1.00
46490;DHT22;32204;49.160;8.580;2024-01-15T05:18:33;-0.10;1.00
46490;DHT22;32204;49.160;8.580;2024-01-15T05:20:59;-0.10;99.90
46490;DHT22;32204;49.160;8.580;2024-01-15T05:23:24;0.00;99.90
46490;DHT22;32204;49.160;8.580;2024-01-15T05:25:50;0.00;99.90
46490;DHT22;32204;49.160;8.580;2024-01-15T05:28:16;0.00;99.90
46490;DHT22;32204;49.160;8.580;2024-01-15T05:30:41;0.10;99.90
46490;DHT22;32204;49.160;8.580;2024-01-15T05:33:07;0.10;99.90
46490;DHT22;32204;49.160;8.580;2024-01-15T05:35:33;0.20;93.60
46490;DHT22;32204;49.160;8.580;2024-01-15T05:37:59;0.10;8.00
46490;DHT22;32204;49.160;8.580;2024-01-15T05:40:25;0.10;99.90
46490;DHT22;32204;49.160;8.580;2024-01-15T05:42:50;0.10;99.90
46490;DHT22;32204;49.160;8.580;2024-01-15T05:45:16;0.10;99.90
46490;DHT22;32204;49.160;8.580;2024-01-15T05:47:42;0.10;99.90
46490;DHT22;32204;49.160;8.580;2024-01-15T05:50:09;0.20;99.90
46490;DHT22;32204;49.160;8.580;2024-01-15T05:52:35;0.30;82.60
46490;DHT22;32204;49.160;8.580;2024-01-15T05:55:00;0.30;1.00
46490;DHT22;32204;49.160;8.580;2024-01-15T05:57:26;0.30;1.00
46490;DHT22;32204;49.160;8.580;2024-01-15T05:59:52;0.30;1.00
46490;DHT22;32204;49.160;8.580;2024-01-15T06:02:18;0.30;1.00
46490;DHT22;32204;49.160;8.580;2024-01-15T06:04:43;0.40;1.00
46490;DHT22;32204;49.160;8.580;2024-01-15T06:07:09;0.50;99.90
46490;DHT22;32204;49.160;8.580;2024-01-15T06:09:34;0.50;99.60
46490;DHT22;32204;49.160;8.580;2024-01-15T06:12:00;0.50;99.90
46490;DHT22;32204;49.160;8.580;2024-01-15T06:14:25;0.50;99.90
46490;DHT22;32204;49.160;8.580;2024-01-15T06:16:52;0.50;99.90
46490;DHT22;32204;49.160;8.580;2024-01-15T06:19:18;0.50;99.90
46490;DHT22;32204;49.160;8.580;2024-01-15T06:21:43;0.50;99.90
46490;DHT22;32204;49.160;8.580;2024-01-15T06:24:09;0.50;99.90
46490;DHT22;32204;49.160;8.580;2024-01-15T06:26:35;0.50;99.90
46490;DHT22;32204;49.160;8.580;2024-01-15T06:29:01;0.50;99.90
46490;DHT22;32204;49.160;8.580;2024-01-15T06:31:28;0.50;99.90
46490;DHT22;32204;49.160;8.580;2024-01-15T06:33:54;0.40;1.00
46490;DHT22;32204;49.160;8.580;2024-01-15T06:36:20;0.40;1.00
46490;DHT22;32204;49.160;8.580;2024-01-15T06:38:46;0.40;1.00
46490;DHT22;32204;49.160;8.580;2024-01-15T06:41:11;0.30;99.90
46490;DHT22;32204;49.160;8.580;2024-01-15T06:43:37;0.40;99.90
46490;DHT22;32204;49.160;8.580;2024-01-15T06:46:03;0.30;99.90
46490;DHT22;32204;49.160;8.580;2024-01-15T06:48:28;0.30;99.90
46490;DHT22;32204;49.160;8.580;2024-01-15T06:50:54;0.40;99.90
46490;DHT22;32204;49.160;8.580;2024-01-15T06:53:19;0.40;99.90
46490;DHT22;32204;49.160;8.580;2024-01-15T06:55:46;0.40;99.90
46490;DHT22;32204;49.160;8.580;2024-01-15T06:58:11;0.30;99.90
46490;DHT22;32204;49.160;8.580;2024-01-15T07:00:37;0.30;99.90
46490;DHT22;32204;49.160;8.580;2024-01-15T07:03:03;0.40;99.90
46490;DHT22;32204;49.160;8.580;2024-01-15T07:05:29;0.40;18.10
46490;DHT22;32204;49.160;8.580;2024-01-15T07:07:56;0.40;99.90
46490;DHT22;32204;49.160;8.580;2024-01-15T07:10:21;0.40;1.00
46490;DHT22;32204;49.160;8.580;2024-01-15T07:12:47;0.40;1.00
46490;DHT22;32204;49.160;8.580;2024-01-15T07:15:13;0.40;1.00
46490;DHT22;32204;49.160;8.580;2024-01-15T07:17:39;0.50;99.90
46490;DHT22;32204;49.160;8.580;2024-01-15T07:20:07;0.50;99.90
46490;DHT22;32204;49.160;8.580;2024-01-15T07:22:35;0.50;99.90
46490;DHT22;32204;49.160;8.580;2024-01-15T07:25:01;0.50;99.90
46490;DHT22;32204;49.160;8.580;2024-01-15T07:27:27;0.50;99.90
46490;DHT22;32204;49.160;8.580;2024-01-15T07:29:52;0.60;99.90
46490;DHT22;32204;49.160;8.580;2024-01-15T07:32:18;0.60;29.40
46490;DHT22;32204;49.160;8.580;2024-01-15T07:34:43;0.60;23.20
46490;DHT22;32204;49.160;8.580;2024-01-15T07:37:09;0.60;1.00
46490;DHT22;32204;49.160;8.580;2024-01-15T07:39:35;0.60;1.00
46490;DHT22;32204;49.160;8.580;2024-01-15T07:42:00;0.70;1.00
46490;DHT22;32204;49.160;8.580;2024-01-15T07:44:26;0.70;1.00
46490;DHT22;32204;49.160;8.580;2024-01-15T07:46:55;0.70;1.00
46490;DHT22;32204;49.160;8.580;2024-01-15T07:49:20;0.70;1.00
46490;DHT22;32204;49.160;8.580;2024-01-15T07:51:46;0.70;1.00
46490;DHT22;32204;49.160;8.580;2024-01-15T07:54:11;0.70;1.00
46490;DHT22;32204;49.160;8.580;2024-01-15T07:59:20;0.70;1.00
46490;DHT22;32204;49.160;8.580;2024-01-15T08:01:46;0.80;1.00
46490;DHT22;32204;49.160;8.580;2024-01-15T08:04:12;0.80;1.00
46490;DHT22;32204;49.160;8.580;2024-01-15T08:06:38;0.90;99.90
46490;DHT22;32204;49.160;8.580;2024-01-15T08:09:04;0.90;99.90
46490;DHT22;32204;49.160;8.580;2024-01-15T08:11:30;0.90;99.90
46490;DHT22;32204;49.160;8.580;2024-01-15T08:13:56;0.90;99.90
46490;DHT22;32204;49.160;8.580;2024-01-15T08:16:22;0.90;1.00
46490;DHT22;32204;49.160;8.580;2024-01-15T08:18:49;0.90;1.00
46490;DHT22;32204;49.160;8.580;2024-01-15T08:21:15;0.90;1.00
46490;DHT22;32204;49.160;8.580;2024-01-15T08:23:41;0.90;1.00
46490;DHT22;32204;49.160;8.580;2024-01-15T08:26:07;1.00;1.00
46490;DHT22;32204;49.160;8.580;2024-01-15T08:28:34;1.00;1.00
46490;DHT22;32204;49.160;8.580;2024-01-15T08:31:00;1.00;1.00
46490;DHT22;32204;49.160;8.580;2024-01-15T08:33:25;1.00;1.00
46490;DHT22;32204;49.160;8.580;2024-01-15T08:35:51;1.10;1.00
46490;DHT22;32204;49.160;8.580;2024-01-15T08:38:18;1.10;1.00
46490;DHT22;32204;49.160;8.580;2024-01-15T08:40:44;1.20;1.00
46490;DHT22;32204;49.160;8.580;2024-01-15T08:43:10;1.20;1.00
46490;DHT22;32204;49.160;8.580;2024-01-15T08:45:36;1.20;99.90
46490;DHT22;32204;49.160;8.580;2024-01-15T08:48:01;1.20;99.90
46490;DHT22;32204;49.160;8.580;2024-01-15T08:50:27;1.10;1.00
46490;DHT22;32204;49.160;8.580;2024-01-15T08:52:53;1.10;99.90
46490;DHT22;32204;49.160;8.580;2024-01-15T08:55:19;1.10;99.90
46490;DHT22;32204;49.160;8.580;2024-01-15T08:57:48;1.20;1.00
46490;DHT22;32204;49.160;8.580;2024-01-15T09:00:14;1.20;1.00
46490;DHT22;32204;49.160;8.580;2024-01-15T09:02:39;1.20;1.00
46490;DHT22;32204;49.160;8.580;2024-01-15T09:05:05;1.10;1.00
46490;DHT22;32204;49.160;8.580;2024-01-15T09:07:32;1.00;99.90
46490;DHT22;32204;49.160;8.580;2024-01-15T09:09:58;1.00;99.90
46490;DHT22;32204;49.160;8.580;2024-01-15T09:12:25;1.00;99.90
46490;DHT22;32204;49.160;8.580;2024-01-15T09:14:51;1.00;1.00
46490;DHT22;32204;49.160;8.580;2024-01-15T09:17:17;1.00;1.00
46490;DHT22;32204;49.160;8.580;2024-01-15T09:19:43;1.10;99.90
46490;DHT22;32204;49.160;8.580;2024-01-15T09:22:09;1.10;1.00
46490;DHT22;32204;49.160;8.580;2024-01-15T09:24:35;1.10;1.00
46490;DHT22;32204;49.160;8.580;2024-01-15T09:27:00;1.10;1.00
46490;DHT22;32204;49.160;8.580;2024-01-15T09:29:26;1.10;35.10
46490;DHT22;32204;49.160;8.580;2024-01-15T09:31:52;1.10;99.90
46490;DHT22;32204;49.160;8.580;2024-01-15T09:34:18;1.10;99.90
46490;DHT22;32204;49.160;8.580;2024-01-15T09:36:43;1.10;1.00
46490;DHT22;32204;49.160;8.580;2024-01-15T09:39:09;1.10;99.90
46490;DHT22;32204;49.160;8.580;2024-01-15T09:41:39;1.20;99.90
46490;DHT22;32204;49.160;8.580;2024-01-15T09:44:05;1.20;99.90
46490;DHT22;32204;49.160;8.580;2024-01-15T09:46:32;1.10;1.00
46490;DHT22;32204;49.160;8.580;2024-01-15T09:48:58;1.10;1.00
46490;DHT22;32204;49.160;8.580;2024-01-15T09:51:24;1.10;1.00
46490;DHT22;32204;49.160;8.580;2024-01-15T09:53:50;1.10;1.00
46490;DHT22;32204;49.160;8.580;2024-01-15T09:56:17;1.20;2.30
46490;DHT22;32204;49.160;8.580;2024-01-15T09:58:42;1.10;1.00
46490;DHT22;32204;49.160;8.580;2024-01-15T10:01:09;1.20;47.80
46490;DHT22;32204;49.160;8.580;2024-01-15T10:03:36;1.20;50.60
46490;DHT22;32204;49.160;8.580;2024-01-15T10:06:03;1.20;12.70
46490;DHT22;32204;49.160;8.580;2024-01-15T10:08:29;1.20;19.80
46490;DHT22;32204;49.160;8.580;2024-01-15T10:10:55;1.20;10.50
46490;DHT22;32204;49.160;8.580;2024-01-15T10:13:21;1.20;1.00
46490;DHT22;32204;49.160;8.580;2024-01-15T10:15:47;1.30;16.50
46490;DHT22;32204;49.160;8.580;2024-01-15T10:18:13;1.30;15.30
46490;DHT22;32204;49.160;8.580;2024-01-15T10:20:39;1.30;38.40
46490;DHT22;32204;49.160;8.580;2024-01-15T10:23:05;1.40;61.90
46490;DHT22;32204;49.160;8.580;2024-01-15T10:25:30;1.40;80.10
46490;DHT22;32204;49.160;8.580;2024-01-15T10:28:01;1.40;12.10
46490;DHT22;32204;49.160;8.580;2024-01-15T10:30:27;1.40;28.30
46490;DHT22;32204;49.160;8.580;2024-01-15T10:33:03;1.40;31.70
46490;DHT22;32204;49.160;8.580;2024-01-15T10:35:33;1.30;21.70
46490;DHT22;32204;49.160;8.580;2024-01-15T10:38:00;1.20;24.10
46490;DHT22;32204;49.160;8.580;2024-01-15T10:40:27;1.00;99.90
46490;DHT22;32204;49.160;8.580;2024-01-15T10:42:52;1.00;99.90
46490;DHT22;32204;49.160;8.580;2024-01-15T10:45:18;1.00;99.90
46490;DHT22;32204;49.160;8.580;2024-01-15T10:47:44;1.00;99.90
46490;DHT22;32204;49.160;8.580;2024-01-15T10:50:11;1.20;99.90
46490;DHT22;32204;49.160;8.580;2024-01-15T10:52:38;1.20;99.90
46490;DHT22;32204;49.160;8.580;2024-01-15T10:55:08;1.10;99.90
46490;DHT22;32204;49.160;8.580;2024-01-15T10:57:38;1.10;99.90
46490;DHT22;32204;49.160;8.580;2024-01-15T11:00:05;1.10;99.90
46490;DHT22;32204;49.160;8.580;2024-01-15T11:02:35;1.20;99.90
46490;DHT22;32204;49.160;8.580;2024-01-15T11:05:02;1.20;99.90
46490;DHT22;32204;49.160;8.580;2024-01-15T11:07:28;1.20;99.90
46490;DHT22;32204;49.160;8.580;2024-01-15T11:09:55;1.20;99.90
46490;DHT22;32204;49.160;8.580;2024-01-15T11:12:20;1.20;99.90
46490;DHT22;32204;49.160;8.580;2024-01-15T11:14:47;1.20;99.90
46490;DHT22;32204;49.160;8.580;2024-01-15T11:17:14;1.10;99.90
46490;DHT22;32204;49.160;8.580;2024-01-15T11:19:48;1.10;99.90
46490;DHT22;32204;49.160;8.580;2024-01-15T11:25:04;1.10;99.90
46490;DHT22;32204;49.160;8.580;2024-01-15T11:27:45;1.20;99.90
46490;DHT22;32204;49.160;8.580;2024-01-15T11:30:18;1.20;99.90
46490;DHT22;32204;49.160;8.580;2024-01-15T11:32:47;1.20;99.90
46490;DHT22;32204;49.160;8.580;2024-01-15T11:35:13;1.20;99.90
46490;DHT22;32204;49.160;8.580;2024-01-15T11:40:21;1.20;99.90
46490;DHT22;32204;49.160;8.580;2024-01-15T11:42:47;1.20;99.90
46490;DHT22;32204;49.160;8.580;2024-01-15T11:45:18;1.20;99.90
46490;DHT22;32204;49.160;8.580;2024-01-15T11:50:34;1.20;99.90
46490;DHT22;32204;49.160;8.580;2024-01-15T11:53:13;1.30;99.90
46490;DHT22;32204;49.160;8.580;2024-01-15T11:55:44;1.30;99.90
46490;DHT22;32204;49.160;8.580;2024-01-15T11:58:14;1.30;99.90
46490;DHT22;32204;49.160;8.580;2024-01-15T12:00:44;1.30;99.90
46490;DHT22;32204;49.160;8.580;2024-01-15T12:03:10;1.40;99.90
46490;DHT22;32204;49.160;8.580;2024-01-15T12:05:37;1.50;99.90
46490;DHT22;32204;49.160;8.580;2024-01-15T12:08:03;1.50;99.90
46490;DHT22;32204;49.160;8.580;2024-01-15T12:10:36;1.50;99.90
46490;DHT22;32204;49.160;8.580;2024-01-15T12:13:09;1.60;99.90
46490;DHT22;32204;49.160;8.580;2024-01-15T12:15:35;1.60;99.90
46490;DHT22;32204;49.160;8.580;2024-01-15T12:18:02;1.60;99.90
46490;DHT22;32204;49.160;8.580;2024-01-15T12:20:29;1.60;99.90
46490;DHT22;32204;49.160;8.580;2024-01-15T12:22:56;1.60;99.90
46490;DHT22;32204;49.160;8.580;2024-01-15T12:25:23;1.60;99.90
46490;DHT22;32204;49.160;8.580;2024-01-15T12:27:49;1.70;99.90
46490;DHT22;32204;49.160;8.580;2024-01-15T12:30:14;1.70;99.90
46490;DHT22;32204;49.160;8.580;2024-01-15T12:32:44;1.70;99.90
46490;DHT22;32204;49.160;8.580;2024-01-15T12:35:10;1.60;99.90
46490;DHT22;32204;49.160;8.580;2024-01-15T12:37:37;1.70;99.90
46490;DHT22;32204;49.160;8.580;2024-01-15T12:40:04;1.70;99.90
46490;DHT22;32204;49.160;8.580;2024-01-15T12:42:35;1.70;99.90
46490;DHT22;32204;49.160;8.580;2024-01-15T12:45:02;1.70;99.90
46490;DHT22;32204;49.160;8.580;2024-01-15T12:47:30;1.80;99.90
46490;DHT22;32204;49.160;8.580;2024-01-15T12:49:57;1.80;99.90
46490;DHT22;32204;49.160;8.580;2024-01-15T12:52:23;1.80;99.90
46490;DHT22;32204;49.160;8.580;2024-01-15T12:54:51;1.80;99.90
46490;DHT22;32204;49.160;8.580;2024-01-15T12:57:17;1.80;99.90
46490;DHT22;32204;49.160;8.580;2024-01-15T12:59:45;1.80;99.90
46490;DHT22;32204;49.160;8.580;2024-01-15T13:02:14;1.90;99.90
46490;DHT22;32204;49.160;8.580;2024-01-15T13:04:40;1.90;99.90
46490;DHT22;32204;49.160;8.580;2024-01-15T13:07:06;2.00;99.90
46490;DHT22;32204;49.160;8.580;2024-01-15T13:09:32;2.00;99.90
46490;DHT22;32204;49.160;8.580;2024-01-15T13:11:58;2.00;99.90
46490;DHT22;32204;49.160;8.580;2024-01-15T13:14:24;2.00;99.90
46490;DHT22;32204;49.160;8.580;2024-01-15T13:16:50;2.10;99.90
46490;DHT22;32204;49.160;8.580;2024-01-15T13:19:16;2.20;99.90
46490;DHT22;32204;49.160;8.580;2024-01-15T13:21:42;2.20;99.90
46490;DHT22;32204;49.160;8.580;2024-01-15T13:24:08;2.10;99.90
46490;DHT22;32204;49.160;8.580;2024-01-15T13:26:35;2.10;99.90
46490;DHT22;32204;49.160;8.580;2024-01-15T13:29:02;2.10;99.90
46490;DHT22;32204;49.160;8.580;2024-01-15T13:31:29;2.00;99.90
46490;DHT22;32204;49.160;8.580;2024-01-15T13:33:55;2.00;99.90
46490;DHT22;32204;49.160;8.580;2024-01-15T13:36:23;2.00;99.90
46490;DHT22;32204;49.160;8.580;2024-01-15T13:38:52;1.90;99.90
46490;DHT22;32204;49.160;8.580;2024-01-15T13:41:20;1.90;99.90
46490;DHT22;32204;49.160;8.580;2024-01-15T13:43:49;2.00;99.90
46490;DHT22;32204;49.160;8.580;2024-01-15T13:46:16;1.90;99.90
46490;DHT22;32204;49.160;8.580;2024-01-15T13:48:42;1.90;99.90
46490;DHT22;32204;49.160;8.580;2024-01-15T13:51:08;1.90;99.90
46490;DHT22;32204;49.160;8.580;2024-01-15T13:53:34;2.00;99.90
46490;DHT22;32204;49.160;8.580;2024-01-15T13:55:59;2.00;99.90
46490;DHT22;32204;49.160;8.580;2024-01-15T13:58:25;2.00;99.90
46490;DHT22;32204;49.160;8.580;2024-01-15T14:00:51;2.10;99.90
46490;DHT22;32204;49.160;8.580;2024-01-15T14:03:17;2.20;99.90
46490;DHT22;32204;49.160;8.580;2024-01-15T14:05:44;2.20;99.90
46490;DHT22;32204;49.160;8.580;2024-01-15T14:08:10;2.20;99.90
46490;DHT22;32204;49.160;8.580;2024-01-15T14:10:36;2.30;99.90
46490;DHT22;32204;49.160;8.580;2024-01-15T14:13:02;2.30;99.90
46490;DHT22;32204;49.160;8.580;2024-01-15T14:15:29;2.40;99.90
46490;DHT22;32204;49.160;8.580;2024-01-15T14:17:54;2.40;95.80
46490;DHT22;32204;49.160;8.580;2024-01-15T14:20:20;2.40;15.60
46490;DHT22;32204;49.160;8.580;2024-01-15T14:22:45;2.30;2.10
46490;DHT22;32204;49.160;8.580;2024-01-15T14:25:11;2.40;1.00
46490;DHT22;32204;49.160;8.580;2024-01-15T14:27:37;2.50;1.00
46490;DHT22;32204;49.160;8.580;2024-01-15T14:30:03;2.40;99.90
46490;DHT22;32204;49.160;8.580;2024-01-15T14:32:28;2.50;99.90
46490;DHT22;32204;49.160;8.580;2024-01-15T14:34:54;2.40;1.00
46490;DHT22;32204;49.160;8.580;2024-01-15T14:37:22;2.40;99.90
46490;DHT22;32204;49.160;8.580;2024-01-15T14:39:47;2.30;99.90
46490;DHT22;32204;49.160;8.580;2024-01-15T14:42:13;2.30;1.00
46490;DHT22;32204;49.160;8.580;2024-01-15T14:44:38;2.40;99.90
46490;DHT22;32204;49.160;8.580;2024-01-15T14:47:06;2.30;99.90
46490;DHT22;32204;49.160;8.580;2024-01-15T14:49:32;2.30;99.90
46490;DHT22;32204;49.160;8.580;2024-01-15T14:51:57;2.40;99.90
46490;DHT22;32204;49.160;8.580;2024-01-15T14:54:23;2.40;99.90
46490;DHT22;32204;49.160;8.580;2024-01-15T14:56:48;2.40;99.90
46490;DHT22;32204;49.160;8.580;2024-01-15T14:59:14;2.40;1.00
46490;DHT22;32204;49.160;8.580;2024-01-15T15:01:40;2.30;99.90
46490;DHT22;32204;49.160;8.580;2024-01-15T15:04:07;2.30;99.90
46490;DHT22;32204;49.160;8.580;2024-01-15T15:06:33;2.30;1.00
46490;DHT22;32204;49.160;8.580;2024-01-15T15:08:59;2.30;1.00
46490;DHT22;32204;49.160;8.580;2024-01-15T15:11:28;2.30;83.00
46490;DHT22;32204;49.160;8.580;2024-01-15T15:13:53;2.40;47.90
46490;DHT22;32204;49.160;8.580;2024-01-15T15:16:19;2.30;1.00
46490;DHT22;32204;49.160;8.580;2024-01-15T15:18:45;2.30;99.90
46490;DHT22;32204;49.160;8.580;2024-01-15T15:21:11;2.30;1.00
46490;DHT22;32204;49.160;8.580;2024-01-15T15:23:37;2.30;1.00
46490;DHT22;32204;49.160;8.580;2024-01-15T15:26:05;2.30;99.90
46490;DHT22;32204;49.160;8.580;2024-01-15T15:28:31;2.40;1.00
46490;DHT22;32204;49.160;8.580;2024-01-15T15:30:57;2.40;99.90
46490;DHT22;32204;49.160;8.580;2024-01-15T15:33:22;2.30;99.90
46490;DHT22;32204;49.160;8.580;2024-01-15T15:35:48;2.30;1.00
46490;DHT22;32204;49.160;8.580;2024-01-15T15:38:16;2.30;1.00
46490;DHT22;32204;49.160;8.580;2024-01-15T15:40:42;2.30;99.90
46490;DHT22;32204;49.160;8.580;2024-01-15T15:43:08;2.20;1.00
46490;DHT22;32204;49.160;8.580;2024-01-15T15:45:34;2.20;1.00
46490;DHT22;32204;49.160;8.580;2024-01-15T15:47:59;2.20;1.00
46490;DHT22;32204;49.160;8.580;2024-01-15T15:50:25;2.20;1.00